Time;durP1;ratioP1;P1;durP2;ratioP2;P2;SDS_P1;SDS_P2;PMS_P1;PMS_P2;Temp;Humidity;BMP_temperature;BMP_pressure;BME280_temperature;BME280_humidity;BME280_pressure;Samples;Min_cycle;Max_cycle;Signal;HPM_P1;HPM_P2
2022/07/11 00:02:12;;;;;;;4.65;2.75;;;;;;;14.35;100.00;93180.41;5110382;28;20044;-77
2022/07/11 00:04:42;;;;;;;3.42;2.38;;;;;;;14.33;100.00;93172.88;5110567;28;20043;-79
2022/07/11 00:07:09;;;;;;;3.50;2.70;;;;;;;14.43;100.00;93174.84;5110171;28;20044;-76
2022/07/11 00:09:36;;;;;;;3.45;2.80;;;;;;;14.43;100.00;93174.84;5110374;28;20116;-78
2022/07/11 00:12:03;;;;;;;4.30;2.92;;;;;;;14.38;100.00;93180.72;5109794;28;20051;-77
2022/07/11 00:14:30;;;;;;;5.38;3.10;;;;;;;14.39;100.00;93184.88;5110321;28;20108;-77
2022/07/11 00:16:57;;;;;;;4.85;3.05;;;;;;;14.40;100.00;93183.06;5110412;28;20100;-76
2022/07/11 00:19:24;;;;;;;6.53;3.10;;;;;;;14.37;100.00;93186.91;5110017;28;20113;-76
2022/07/11 00:21:53;;;;;;;3.30;2.50;;;;;;;14.33;100.00;93187.59;5109908;28;20100;-76
2022/07/11 00:24:21;;;;;;;4.57;3.00;;;;;;;14.36;100.00;93202.63;5110207;28;20130;-76
2022/07/11 00:26:48;;;;;;;6.32;3.17;;;;;;;14.21;100.00;93179.91;5110064;28;20118;-76
2022/07/11 00:29:16;;;;;;;6.00;3.58;;;;;;;14.33;100.00;93203.09;5110032;28;20048;-77
2022/07/11 00:31:43;;;;;;;4.68;3.22;;;;;;;14.28;100.00;93208.97;5109486;28;20579;-77
2022/07/11 00:34:10;;;;;;;3.75;2.85;;;;;;;14.16;100.00;93198.69;5110074;28;20451;-78
2022/07/11 00:36:37;;;;;;;5.28;2.97;;;;;;;14.23;100.00;93201.91;5110019;28;20108;-78
2022/07/11 00:39:05;;;;;;;3.85;2.67;;;;;;;14.21;100.00;93195.41;5109453;28;20558;-78
2022/07/11 00:41:32;;;;;;;4.25;2.67;;;;;;;14.21;100.00;93198.00;5109881;28;20417;-78
2022/07/11 00:44:01;;;;;;;5.45;2.83;;;;;;;14.13;100.00;93184.44;5109787;28;20044;-78
2022/07/11 00:46:29;;;;;;;6.45;3.30;;;;;;;14.21;100.00;93196.19;5108975;28;20096;-76
2022/07/11 00:48:57;;;;;;;5.20;3.00;;;;;;;14.27;100.00;93215.16;5109064;28;20044;-77
2022/07/11 00:51:24;;;;;;;4.07;3.00;;;;;;;14.24;100.00;93208.66;5108710;28;20039;-78
2022/07/11 00:53:53;;;;;;;5.47;3.15;;;;;;;14.09;100.00;93196.25;5109193;28;20046;-77
2022/07/11 00:56:23;;;;;;;7.57;3.00;;;;;;;14.12;100.00;93195.00;5109048;28;20493;-77
2022/07/11 00:58:51;;;;;;;4.68;3.25;;;;;;;14.04;100.00;93188.41;5108950;28;20044;-77
2022/07/11 01:01:19;;;;;;;7.40;3.03;;;;;;;14.02;100.00;93190.44;5109200;28;20085;-77
2022/07/11 01:03:46;;;;;;;5.10;3.30;;;;;;;13.95;100.00;93184.63;5108882;28;20447;-77
2022/07/11 01:06:13;;;;;;;6.28;3.20;;;;;;;13.91;100.00;93186.88;5108940;28;20563;-77
2022/07/11 01:08:41;;;;;;;5.53;3.55;;;;;;;13.62;100.00;93172.16;5109114;28;20044;-77
2022/07/11 01:11:12;;;;;;;7.25;4.40;;;;;;;13.57;100.00;93190.13;5109031;28;20044;-77
2022/07/11 01:13:40;;;;;;;12.43;5.28;;;;;;;13.28;100.00;93184.88;5109041;28;20048;-77
2022/07/11 01:16:08;;;;;;;8.10;4.13;;;;;;;13.08;100.00;93174.94;5108781;28;20035;-77
2022/07/11 01:18:35;;;;;;;9.50;5.63;;;;;;;12.84;100.00;93169.78;5108804;28;20501;-77
2022/07/11 01:21:05;;;;;;;10.13;4.88;;;;;;;13.03;100.00;93180.78;5108838;28;20119;-77
2022/07/11 01:23:33;;;;;;;10.32;4.80;;;;;;;13.08;100.00;93168.00;5108962;28;20040;-77
2022/07/11 01:26:00;;;;;;;7.13;4.80;;;;;;;13.16;100.00;93168.66;5108991;28;20047;-77
2022/07/11 01:28:27;;;;;;;9.05;5.10;;;;;;;13.20;100.00;93165.38;5108879;28;20463;-77
2022/07/11 01:30:54;;;;;;;8.13;5.20;;;;;;;13.33;100.00;93171.31;5108917;28;20048;-77
2022/07/11 01:33:21;;;;;;;7.60;4.43;;;;;;;13.41;100.00;93186.44;5108542;28;20083;-77
2022/07/11 01:35:47;;;;;;;6.30;4.10;;;;;;;13.48;100.00;93192.28;5108677;28;20089;-77
2022/07/11 01:38:14;;;;;;;7.78;4.00;;;;;;;13.51;100.00;93191.03;5108445;28;20089;-77
2022/07/11 01:40:42;;;;;;;6.78;3.83;;;;;;;13.51;100.00;93198.00;5108739;28;20051;-76
2022/07/11 01:43:09;;;;;;;5.15;3.53;;;;;;;13.54;100.00;93202.69;5088371;28;20043;-75
2022/07/11 01:45:36;;;;;;;4.25;3.30;;;;;;;13.55;100.00;93201.69;5091226;28;20047;-75
2022/07/11 01:48:02;;;;;;;4.80;3.20;;;;;;;13.40;100.00;93181.50;5108132;28;20107;-77
2022/07/11 01:50:29;;;;;;;5.32;3.63;;;;;;;13.48;100.00;93197.44;5108849;28;20039;-77
2022/07/11 01:52:56;;;;;;;4.72;2.83;;;;;;;13.45;100.00;93202.25;5108386;28;20074;-77
2022/07/11 01:55:23;;;;;;;4.35;3.30;;;;;;;13.37;100.00;93198.22;5108192;28;20101;-77
2022/07/11 01:57:51;;;;;;;5.60;3.17;;;;;;;13.39;100.00;93205.72;5111165;28;20040;-76
2022/07/11 02:00:17;;;;;;;4.00;3.08;;;;;;;13.34;100.00;93206.44;5112431;28;20039;-77
2022/07/11 02:02:44;;;;;;;3.90;3.17;;;;;;;13.36;100.00;93209.56;5112493;28;20491;-76
2022/07/11 02:05:11;;;;;;;4.55;3.35;;;;;;;13.34;100.00;93203.84;5112383;28;20096;-77
2022/07/11 02:10:23;;;;;;;7.32;3.80;;;;;;;13.32;100.00;93211.81;5112115;28;20062;-76
2022/07/11 02:12:51;;;;;;;7.80;3.85;;;;;;;13.30;100.00;93221.56;5112399;28;20098;-76
2022/07/11 02:15:18;;;;;;;6.43;3.75;;;;;;;13.20;100.00;93219.53;5112450;28;20043;-76
2022/07/11 02:17:45;;;;;;;6.35;4.13;;;;;;;13.28;100.00;93230.56;5112161;28;20035;-76
2022/07/11 02:20:12;;;;;;;5.25;3.60;;;;;;;13.28;100.00;93227.97;5112352;28;20462;-76
2022/07/11 02:22:38;;;;;;;5.03;3.35;;;;;;;13.29;100.00;93234.69;5112028;28;20446;-77
2022/07/11 02:25:06;;;;;;;7.35;3.17;;;;;;;13.26;100.00;93233.34;5111928;28;20039;-77
2022/07/11 02:27:33;;;;;;;5.75;3.30;;;;;;;13.01;100.00;93221.44;5112237;28;20070;-77
2022/07/11 02:30:01;;;;;;;4.50;3.10;;;;;;;13.04;100.00;93241.66;5111866;28;20617;-77
2022/07/11 02:32:28;;;;;;;5.55;3.00;;;;;;;12.96;100.00;93235.03;5112059;28;20096;-75
2022/07/11 02:34:55;;;;;;;6.25;2.95;;;;;;;12.98;100.00;93239.97;5112383;28;20044;-76
2022/07/11 02:37:22;;;;;;;5.47;3.08;;;;;;;12.99;100.00;93241.53;5111910;28;20044;-76
2022/07/11 02:39:48;;;;;;;5.18;2.78;;;;;;;13.01;100.00;93243.88;5111872;28;20447;-76
2022/07/11 02:42:15;;;;;;;5.32;2.80;;;;;;;12.96;100.00;93250.50;5112011;28;20041;-76
2022/07/11 02:44:42;;;;;;;6.93;3.30;;;;;;;12.92;100.00;93249.34;5111568;28;20055;-76
2022/07/11 02:47:10;;;;;;;5.28;3.15;;;;;;;12.90;100.00;93251.38;5111490;28;20047;-76
2022/07/11 02:49:37;;;;;;;7.35;3.83;;;;;;;12.91;100.00;93265.84;5111524;28;20036;-76
2022/07/11 02:52:05;;;;;;;7.90;4.07;;;;;;;12.83;100.00;93253.28;5111514;28;20562;-76
2022/07/11 02:54:31;;;;;;;6.60;3.40;;;;;;;12.79;100.00;93258.09;5111501;28;20635;-76
2022/07/11 02:56:58;;;;;;;5.07;3.40;;;;;;;12.73;100.00;93256.38;5111369;28;20489;-76
2022/07/11 02:59:25;;;;;;;5.70;3.53;;;;;;;12.73;100.00;93258.97;5111054;28;20485;-76
2022/07/11 03:01:52;;;;;;;5.97;3.45;;;;;;;12.71;100.00;93266.16;5111477;28;20093;-76
2022/07/11 03:04:20;;;;;;;8.63;3.60;;;;;;;12.68;100.00;93269.16;5111449;28;20085;-76
2022/07/11 03:06:48;;;;;;;6.60;4.20;;;;;;;12.72;100.00;93274.69;5111069;28;20035;-76
2022/07/11 03:09:14;;;;;;;6.43;3.60;;;;;;;12.65;100.00;93267.03;5111011;28;20047;-76
2022/07/11 03:11:41;;;;;;;9.50;3.72;;;;;;;12.60;100.00;93262.56;5091863;28;20048;-76
2022/07/11 03:14:08;;;;;;;7.45;3.83;;;;;;;12.58;100.00;93263.78;5091160;28;20048;-76
2022/07/11 03:16:35;;;;;;;7.78;3.85;;;;;;;12.57;100.00;93278.44;5090585;28;20055;-76
2022/07/11 03:19:02;;;;;;;10.43;4.32;;;;;;;12.52;100.00;93273.94;5091012;28;20040;-75
2022/07/11 03:21:30;;;;;;;7.03;4.13;;;;;;;12.58;100.00;93269.69;5090593;28;20055;-76
2022/07/11 03:23:57;;;;;;;11.02;4.25;;;;;;;12.58;100.00;93281.81;5090691;28;20048;-76
2022/07/11 03:26:24;;;;;;;7.40;4.53;;;;;;;12.52;100.00;93275.72;5090218;28;20040;-76
2022/07/11 03:28:50;;;;;;;7.45;4.70;;;;;;;12.45;100.00;93270.66;5090657;28;20048;-76
2022/07/11 03:31:18;;;;;;;7.20;4.15;;;;;;;12.38;100.00;93269.97;5090835;28;20047;-76
2022/07/11 03:33:45;;;;;;;8.13;4.30;;;;;;;12.36;100.00;93269.41;5089941;28;20493;-76
2022/07/11 03:36:12;;;;;;;9.23;3.83;;;;;;;12.33;100.00;93278.38;5090426;28;20044;-77
2022/07/11 03:38:40;;;;;;;11.15;5.10;;;;;;;12.22;100.00;93279.09;5090441;28;20428;-76
2022/07/11 03:41:07;;;;;;;9.00;4.65;;;;;;;12.09;100.00;93247.34;5090253;28;20044;-76
2022/07/11 03:43:33;;;;;;;8.80;4.55;;;;;;;12.27;100.00;93277.44;5090125;28;20044;-76
2022/07/11 03:46:00;;;;;;;11.25;4.80;;;;;;;12.32;100.00;93279.38;5096749;28;20036;-76
2022/07/11 03:48:27;;;;;;;8.02;4.43;;;;;;;12.37;100.00;93283.88;5110573;28;20051;-76
2022/07/11 03:50:54;;;;;;;8.07;4.65;;;;;;;12.36;100.00;93284.88;5110555;28;20104;-76
2022/07/11 03:53:20;;;;;;;9.52;4.75;;;;;;;12.37;100.00;93294.94;5110502;28;20457;-76
2022/07/11 03:55:49;;;;;;;10.25;5.55;;;;;;;12.36;100.00;93290.03;5110662;28;20130;-76
2022/07/11 03:58:15;;;;;;;7.60;4.57;;;;;;;12.36;100.00;93301.09;5110211;28;20108;-76
2022/07/11 04:00:42;;;;;;;8.10;4.43;;;;;;;12.42;100.00;93299.47;5105464;28;20052;-76
2022/07/11 04:03:10;;;;;;;12.70;4.82;;;;;;;12.48;100.00;93297.78;5090246;28;20047;-76
2022/07/11 04:05:37;;;;;;;11.38;5.28;;;;;;;12.48;100.00;93290.06;5090124;28;20040;-76
2022/07/11 04:08:04;;;;;;;9.15;4.80;;;;;;;12.57;100.00;93311.94;5089990;28;20059;-76
2022/07/11 04:10:31;;;;;;;10.65;4.93;;;;;;;12.63;100.00;93305.91;5090333;28;20048;-76
2022/07/11 04:12:59;;;;;;;12.20;4.75;;;;;;;12.67;100.00;93312.19;5090094;28;20497;-76
2022/07/11 04:15:25;;;;;;;12.52;4.53;;;;;;;12.68;100.00;93316.34;5090133;28;20089;-76
2022/07/11 04:17:52;;;;;;;10.70;5.00;;;;;;;12.81;100.00;93312.78;5090290;28;20032;-76
2022/07/11 04:20:20;;;;;;;14.48;6.10;;;;;;;12.83;100.00;93317.75;5089471;28;20044;-76
2022/07/11 04:22:46;;;;;;;8.27;5.47;;;;;;;12.85;100.00;93307.97;5090123;28;20052;-76
2022/07/11 04:25:13;;;;;;;9.30;4.97;;;;;;;12.89;100.00;93309.13;5090169;28;20048;-76
2022/07/11 04:27:40;;;;;;;8.88;4.43;;;;;;;12.98;100.00;93314.72;5089992;28;20110;-76
2022/07/11 04:30:09;;;;;;;9.23;4.55;;;;;;;13.04;100.00;93311.25;5090046;28;20052;-76
2022/07/11 04:32:36;;;;;;;9.30;4.53;;;;;;;13.02;100.00;93309.91;5089818;28;20048;-76
2022/07/11 04:35:03;;;;;;;9.82;5.10;;;;;;;13.03;100.00;93301.97;5089794;28;20044;-76
2022/07/11 04:37:30;;;;;;;9.38;4.90;;;;;;;13.08;100.00;93302.09;5089851;28;20390;-76
2022/07/11 04:39:57;;;;;;;11.05;5.53;;;;;;;13.20;100.00;93320.13;5089536;28;20870;-77
2022/07/11 04:42:24;;;;;;;12.05;5.45;;;;;;;13.29;100.00;93322.41;5089460;28;20055;-77
2022/07/11 04:44:51;;;;;;;12.82;5.88;;;;;;;13.33;100.00;93311.41;5089395;28;20139;-76
2022/07/11 04:47:20;;;;;;;14.50;6.93;;;;;;;13.43;100.00;93312.66;5104077;28;20413;-76
2022/07/11 04:49:46;;;;;;;16.02;7.15;;;;;;;13.40;100.00;93310.50;5089444;28;20130;-77
2022/07/11 04:52:14;;;;;;;15.07;7.82;;;;;;;13.31;100.00;93307.47;5089654;28;20059;-76
2022/07/11 04:54:40;;;;;;;13.93;6.35;;;;;;;13.28;100.00;93305.34;5089548;28;20376;-77
2022/07/11 04:57:07;;;;;;;14.15;7.68;;;;;;;13.41;100.00;93315.44;5089665;28;20105;-77
2022/07/11 04:59:34;;;;;;;15.25;5.93;;;;;;;13.42;100.00;93316.25;5089572;28;20047;-77
2022/07/11 05:02:01;;;;;;;14.00;5.07;;;;;;;13.36;100.00;93316.13;5089529;28;20048;-77
2022/07/11 05:04:29;;;;;;;9.15;4.43;;;;;;;13.34;100.00;93312.97;5089329;28;20444;-77
2022/07/11 05:06:56;;;;;;;9.13;4.60;;;;;;;13.31;100.00;93321.16;5089513;28;20044;-77
2022/07/11 05:09:22;;;;;;;10.57;4.82;;;;;;;13.37;100.00;93319.47;5089127;28;20101;-77
2022/07/11 05:11:49;;;;;;;10.90;4.90;;;;;;;13.51;100.00;93327.81;5089788;28;20055;-76
2022/07/11 05:14:16;;;;;;;9.65;4.75;;;;;;;13.60;100.00;93328.25;5089198;28;20181;-77
2022/07/11 05:16:42;;;;;;;9.07;4.57;;;;;;;13.66;100.00;93324.78;5088981;28;20044;-77
2022/07/11 05:19:09;;;;;;;8.82;4.88;;;;;;;13.79;100.00;93326.34;5089389;28;20047;-77
2022/07/11 05:21:37;;;;;;;8.13;4.10;;;;;;;13.93;100.00;93334.63;5089199;28;20109;-77
2022/07/11 05:24:04;;;;;;;6.45;4.30;;;;;;;14.02;100.00;93330.69;5089114;28;20047;-77
2022/07/11 05:26:31;;;;;;;10.48;4.85;;;;;;;14.05;100.00;93320.91;5089110;28;20044;-77
2022/07/11 05:28:58;;;;;;;8.30;4.43;;;;;;;14.07;100.00;93319.66;5089179;28;20052;-76
2022/07/11 05:31:24;;;;;;;7.40;4.40;;;;;;;14.37;100.00;93336.00;5088843;28;20044;-76
2022/07/11 05:33:51;;;;;;;9.52;4.55;;;;;;;14.53;100.00;93329.28;5093136;28;20055;-76
2022/07/11 05:36:18;;;;;;;7.65;4.82;;;;;;;14.65;100.00;93339.59;5093051;28;20048;-77
2022/07/11 05:38:46;;;;;;;6.65;4.57;;;;;;;14.75;100.00;93344.97;5093252;28;20044;-77
2022/07/11 05:41:13;;;;;;;7.55;4.47;;;;;;;14.67;100.00;93340.13;5093042;28;20098;-78
2022/07/11 05:43:40;;;;;;;9.05;5.28;;;;;;;14.94;100.00;93335.22;5093204;28;20040;-77
2022/07/11 05:46:07;;;;;;;11.02;4.75;;;;;;;15.10;100.00;93333.66;5100519;28;20088;-77
2022/07/11 05:48:33;;;;;;;9.20;4.15;;;;;;;15.15;100.00;93338.16;5099411;28;20055;-77
2022/07/11 05:51:00;;;;;;;8.55;3.83;;;;;;;15.35;100.00;93336.88;5093346;28;20113;-77
2022/07/11 05:53:27;;;;;;;10.30;5.18;;;;;;;15.44;100.00;93319.94;5093259;28;20105;-78
2022/07/11 05:55:55;;;;;;;11.48;4.95;;;;;;;15.85;100.00;93335.25;5092834;28;20040;-78
2022/07/11 05:58:22;;;;;;;5.93;3.75;;;;;;;16.11;100.00;93345.97;5092617;28;20444;-77
2022/07/11 06:00:49;;;;;;;5.05;3.25;;;;;;;16.41;100.00;93337.00;5092665;28;20494;-77
2022/07/11 06:03:15;;;;;;;3.03;2.28;;;;;;;16.33;93.53;93334.06;5092789;28;20497;-78
2022/07/11 06:05:42;;;;;;;4.15;2.30;;;;;;;16.61;92.53;93353.00;5108462;28;20048;-78
2022/07/11 06:10:53;;;;;;;3.83;2.70;;;;;;;16.60;91.31;93349.63;5092681;28;20058;-78
2022/07/11 06:13:21;;;;;;;3.20;2.10;;;;;;;16.70;88.56;93354.94;5092510;28;20093;-79
2022/07/11 06:15:48;;;;;;;2.30;1.60;;;;;;;16.42;87.69;93358.50;5092559;28;20561;-79
2022/07/11 06:18:14;;;;;;;3.60;2.30;;;;;;;16.55;89.71;93359.94;5092452;28;20098;-79
2022/07/11 06:20:41;;;;;;;4.82;1.90;;;;;;;16.93;88.28;93354.88;5092246;28;20052;-79
2022/07/11 06:23:08;;;;;;;5.03;2.58;;;;;;;17.11;81.28;93348.56;5092479;28;20056;-79
2022/07/11 06:25:35;;;;;;;4.50;2.47;;;;;;;17.29;77.63;93372.59;5092423;28;20089;-79
2022/07/11 06:28:02;;;;;;;3.63;1.58;;;;;;;17.11;79.75;93358.94;5092646;28;20420;-80
2022/07/11 06:30:30;;;;;;;4.90;1.75;;;;;;;17.42;69.96;93368.81;5092742;28;20132;-79
2022/07/11 06:32:57;;;;;;;2.60;1.15;;;;;;;17.57;70.24;93355.16;5092487;28;20055;-80
2022/07/11 06:35:24;;;;;;;2.45;1.05;;;;;;;17.90;67.90;93368.88;5092031;28;20097;-81
2022/07/11 06:37:51;;;;;;;2.72;1.00;;;;;;;18.24;69.66;93362.56;5092491;28;20054;-81
2022/07/11 06:40:18;;;;;;;2.35;1.10;;;;;;;18.39;66.60;93362.66;5092557;28;20048;-81
2022/07/11 06:42:45;;;;;;;2.45;0.80;;;;;;;18.06;66.66;93361.16;5091245;28;20135;-80
2022/07/11 06:45:11;;;;;;;5.65;1.80;;;;;;;18.43;67.58;93355.88;5092009;28;20048;-80
2022/07/11 06:47:40;;;;;;;1.73;1.00;;;;;;;18.76;65.92;93349.72;5092244;28;20105;-81
2022/07/11 06:50:08;;;;;;;2.67;1.65;;;;;;;18.73;64.11;93345.81;5092140;28;20497;-81
2022/07/11 06:52:34;;;;;;;4.13;1.20;;;;;;;19.06;69.86;93346.44;5092177;28;20430;-80
2022/07/11 06:55:01;;;;;;;4.90;1.60;;;;;;;18.69;69.30;93339.56;5092037;28;20407;-81
2022/07/11 06:57:28;;;;;;;4.82;1.23;;;;;;;18.54;68.69;93333.31;5091690;28;20570;-81
2022/07/11 06:59:55;;;;;;;3.85;1.40;;;;;;;19.03;69.79;93340.94;5091853;28;20048;-80
2022/07/11 07:02:26;;;;;;;3.17;1.83;;;;;;;18.80;67.97;93341.16;5091970;28;20048;-81
2022/07/11 07:04:54;;;;;;;2.40;1.13;;;;;;;18.33;71.78;93329.06;5091777;28;20102;-79
2022/07/11 07:07:21;;;;;;;6.82;1.30;;;;;;;18.88;68.46;93341.69;5091848;28;20052;-79
2022/07/11 07:09:47;;;;;;;10.90;1.50;;;;;;;19.27;64.20;93328.22;5091882;28;20097;-81
2022/07/11 07:12:14;;;;;;;2.53;1.10;;;;;;;19.17;58.72;93341.22;5104277;28;20492;-81
2022/07/11 07:14:41;;;;;;;2.50;1.08;;;;;;;19.53;61.45;93343.81;5088646;28;20056;-80
2022/07/11 07:17:08;;;;;;;2.90;1.58;;;;;;;19.00;60.57;93321.41;5095007;28;20119;-81
2022/07/11 07:19:35;;;;;;;2.25;1.08;;;;;;;18.89;59.99;93338.06;5097312;28;20047;-81
2022/07/11 07:22:05;;;;;;;3.88;1.10;;;;;;;18.91;60.60;93328.94;5092837;28;20498;-82
2022/07/11 07:24:32;;;;;;;1.67;1.00;;;;;;;19.29;61.09;93327.94;5099830;28;20069;-81
2022/07/11 07:26:59;;;;;;;2.90;0.75;;;;;;;19.82;60.13;93347.69;5092377;28;20052;-83
2022/07/11 07:29:27;;;;;;;3.17;0.90;;;;;;;20.15;61.61;93340.34;5091147;28;20550;-82
2022/07/11 07:31:54;;;;;;;1.35;0.60;;;;;;;20.42;55.85;93347.78;5090750;28;20046;-79
2022/07/11 07:34:20;;;;;;;2.13;1.10;;;;;;;20.43;54.45;93336.28;5103134;28;20808;-80
2022/07/11 07:36:47;;;;;;;2.85;0.50;;;;;;;20.96;57.61;93342.03;5103347;28;20047;-78
2022/07/11 07:39:15;;;;;;;3.75;1.10;;;;;;;21.29;54.23;93337.09;5111477;28;20048;-79
2022/07/11 07:41:42;;;;;;;12.93;3.92;;;;;;;21.31;52.47;93342.06;5093107;28;20047;-80
2022/07/11 07:44:09;;;;;;;3.97;2.17;;;;;;;21.70;54.97;93337.84;5091302;28;20467;-82
2022/07/11 07:46:36;;;;;;;1.90;0.63;;;;;;;21.94;51.76;93334.47;5102274;28;20522;-78
2022/07/11 07:49:03;;;;;;;1.98;0.68;;;;;;;21.98;50.10;93332.88;5105794;28;20040;-80
2022/07/11 07:51:30;;;;;;;1.67;0.70;;;;;;;21.12;52.06;93337.50;5106486;28;20126;-80
2022/07/11 07:53:56;;;;;;;1.80;0.70;;;;;;;21.58;53.97;93333.72;5099857;28;20063;-81
2022/07/11 07:56:25;;;;;;;2.15;0.60;;;;;;;21.42;52.80;93334.94;5090241;28;20109;-80
2022/07/11 07:58:52;;;;;;;2.40;0.80;;;;;;;21.15;49.96;93331.72;5090595;28;20056;-81
2022/07/11 08:01:36;;;;;;;2.15;0.43;;;;;;;20.74;54.47;93316.31;5095521;28;20097;-81
2022/07/11 08:04:03;;;;;;;5.85;1.00;;;;;;;20.72;53.77;93321.81;5097389;28;20055;-83
2022/07/11 08:06:30;;;;;;;2.80;0.82;;;;;;;19.95;53.88;93334.09;5090256;28;20043;-80
2022/07/11 08:08:57;;;;;;;1.50;0.60;;;;;;;19.70;52.11;93348.75;5090617;28;20630;-80
2022/07/11 08:11:25;;;;;;;1.83;0.65;;;;;;;19.29;52.74;93349.56;5090592;28;20040;-79
2022/07/11 08:13:52;;;;;;;4.30;0.90;;;;;;;19.41;52.18;93346.72;5090550;28;20048;-79
2022/07/11 08:16:20;;;;;;;2.85;0.60;;;;;;;18.59;51.61;93344.72;5088312;28;20048;-80
2022/07/11 08:18:47;;;;;;;3.03;0.75;;;;;;;18.99;50.68;93347.69;5088723;28;20413;-80
2022/07/11 08:21:14;;;;;;;2.38;0.60;;;;;;;19.60;51.72;93351.38;5089214;28;20047;-81
2022/07/11 08:23:41;;;;;;;2.42;0.63;;;;;;;19.76;48.83;93347.69;5089858;28;20056;-80
2022/07/11 08:26:08;;;;;;;1.33;0.45;;;;;;;19.86;47.96;93341.69;5089589;28;20089;-81
2022/07/11 08:28:36;;;;;;;1.80;0.50;;;;;;;19.39;49.48;93348.00;5109264;28;20071;-81
2022/07/11 08:31:03;;;;;;;1.67;0.60;;;;;;;19.12;50.01;93352.41;5092385;28;20040;-79
2022/07/11 08:33:30;;;;;;;2.95;0.80;;;;;;;18.88;49.69;93344.31;5089299;28;20036;-79
2022/07/11 08:35:56;;;;;;;2.38;0.80;;;;;;;19.19;53.01;93350.34;5089730;28;20059;-80
2022/07/11 08:38:23;;;;;;;3.03;0.70;;;;;;;19.62;51.65;93352.66;5089732;28;20051;-79
2022/07/11 08:40:51;;;;;;;3.20;0.75;;;;;;;19.75;51.84;93324.50;5090130;28;20162;-78
2022/07/11 08:43:23;;;;;;;3.13;0.80;;;;;;;19.28;50.90;93340.19;5090091;28;20122;-81
2022/07/11 08:45:52;;;;;;;4.25;0.90;;;;;;;19.54;49.07;93348.00;5095152;28;20057;-79
2022/07/11 08:48:20;;;;;;;1.27;0.50;;;;;;;18.20;49.95;93315.50;5098421;28;20044;-80
2022/07/11 08:50:48;;;;;;;2.97;0.70;;;;;;;18.90;51.89;93343.00;5089951;28;20062;-81
2022/07/11 08:53:16;;;;;;;1.85;0.30;;;;;;;18.94;50.33;93330.25;5089799;28;20044;-80
2022/07/11 08:55:43;;;;;;;1.45;0.50;;;;;;;19.23;50.92;93343.59;5089124;28;20056;-80
2022/07/11 08:58:11;;;;;;;2.38;0.70;;;;;;;19.62;52.87;93344.84;5089859;28;20074;-81
2022/07/11 09:00:38;;;;;;;1.42;0.45;;;;;;;18.73;49.97;93347.63;5089754;28;20090;-81
2022/07/11 09:03:08;;;;;;;1.92;0.73;;;;;;;18.72;49.83;93346.06;5089866;28;20048;-81
2022/07/11 09:05:36;;;;;;;2.08;0.70;;;;;;;18.64;53.57;93323.94;5089530;28;20094;-80
2022/07/11 09:08:03;;;;;;;1.45;0.80;;;;;;;19.19;51.62;93349.56;5095662;28;20558;-80
2022/07/11 09:10:30;;;;;;;2.38;1.05;;;;;;;19.29;50.59;93352.16;5097216;28;20456;-81
2022/07/11 09:13:01;;;;;;;2.10;0.52;;;;;;;20.02;52.02;93352.91;5089928;28;20044;-81
2022/07/11 09:15:36;;;;;;;1.27;0.50;;;;;;;20.14;50.47;93362.25;5089372;28;20047;-81
2022/07/11 09:18:05;;;;;;;2.17;0.65;;;;;;;20.64;49.96;93351.09;5088981;28;20547;-82
2022/07/11 09:26:21;;;;;;;3.83;0.60;;;;;;;19.72;49.90;93353.72;5089028;28;20397;-80
2022/07/11 09:28:59;;;;;;;1.75;0.80;;;;;;;19.23;48.66;93350.59;5109827;28;20046;-80
2022/07/11 09:31:28;;;;;;;1.90;0.55;;;;;;;19.09;49.15;93351.13;5092955;28;20152;-78
2022/07/11 09:34:01;;;;;;;0.98;0.50;;;;;;;19.31;50.12;93349.31;5088997;28;20135;-80
2022/07/11 09:36:39;;;;;;;3.25;0.60;;;;;;;20.00;49.37;93351.59;5089010;28;20044;-82
2022/07/11 09:39:09;;;;;;;4.25;0.57;;;;;;;20.01;50.18;93345.34;5089186;28;20048;-80
2022/07/11 09:41:37;;;;;;;3.97;0.60;;;;;;;20.33;49.80;93348.63;5088932;28;20040;-80
2022/07/11 09:44:12;;;;;;;2.42;0.70;;;;;;;20.45;49.60;93343.84;5089172;28;20040;-80
2022/07/11 09:46:39;;;;;;;1.65;0.50;;;;;;;20.37;49.24;93363.47;5100978;28;20044;-79
2022/07/11 09:49:07;;;;;;;3.03;0.77;;;;;;;20.56;49.56;93355.81;5091095;28;20044;-80
2022/07/11 09:51:36;;;;;;;2.25;0.50;;;;;;;20.64;48.98;93351.88;5088399;28;20564;-78
2022/07/11 09:54:05;;;;;;;3.17;0.98;;;;;;;20.36;49.79;93361.13;5088467;28;20052;-79
2022/07/11 09:56:39;;;;;;;2.38;1.05;;;;;;;20.58;49.96;93358.16;5086283;28;20075;-78
2022/07/11 09:59:06;;;;;;;1.05;0.52;;;;;;;20.61;47.08;93368.06;5087253;28;20040;-80
2022/07/11 10:01:33;;;;;;;3.45;0.60;;;;;;;19.38;49.06;93357.63;5088012;28;20051;-79
2022/07/11 10:04:00;;;;;;;1.02;0.50;;;;;;;19.39;49.74;93377.41;5089000;28;20102;-79
2022/07/11 10:06:27;;;;;;;2.13;0.65;;;;;;;19.66;50.37;93371.16;5089055;28;20127;-79
2022/07/11 10:08:57;;;;;;;2.05;0.55;;;;;;;20.06;49.83;93373.22;5088933;28;20052;-79
2022/07/11 10:11:24;;;;;;;2.00;0.50;;;;;;;20.31;48.08;93358.53;5088515;28;20090;-80
2022/07/11 10:13:52;;;;;;;2.10;0.70;;;;;;;20.13;44.83;93361.47;5090056;28;20051;-79
2022/07/11 10:16:26;;;;;;;1.25;0.60;;;;;;;20.77;47.63;93349.69;5097051;28;20467;-80
2022/07/11 10:19:12;;;;;;;5.45;0.65;;;;;;;21.42;47.45;93359.22;5098883;28;20048;-80
2022/07/11 10:21:44;;;;;;;4.03;0.50;;;;;;;21.71;48.01;93350.63;5097640;28;20048;-82
2022/07/11 10:24:22;;;;;;;1.67;0.60;;;;;;;19.88;47.12;93363.06;5096029;28;20072;-77
2022/07/11 10:27:00;;;;;;;1.10;0.57;;;;;;;20.39;47.85;93348.34;5096472;28;20039;-81
2022/07/11 10:29:32;;;;;;;4.40;0.70;;;;;;;20.65;46.12;93350.81;5102773;28;20047;-79
2022/07/11 10:32:07;;;;;;;3.22;0.57;;;;;;;21.29;50.08;93352.03;5092343;28;20051;-79
2022/07/11 10:34:35;;;;;;;2.53;0.60;;;;;;;20.39;48.02;93355.38;5092014;28;20040;-78
2022/07/11 10:37:04;;;;;;;2.72;1.08;;;;;;;20.66;50.10;93343.78;5091897;28;20924;-82
2022/07/11 10:39:34;;;;;;;3.72;0.80;;;;;;;19.96;48.80;93350.53;5102384;28;20093;-78
2022/07/11 10:42:03;;;;;;;2.55;0.65;;;;;;;19.47;50.91;93324.03;5095852;28;20055;-79
2022/07/11 10:44:48;;;;;;;6.03;0.98;;;;;;;20.20;53.24;93348.16;5092276;28;20048;-79
2022/07/11 10:47:35;;;;;;;2.83;0.80;;;;;;;20.79;51.45;93352.84;5106193;28;20474;-78
2022/07/11 10:50:08;;;;;;;1.98;0.70;;;;;;;21.00;49.17;93334.44;5091710;28;20059;-80
2022/07/11 10:52:37;;;;;;;1.85;0.80;;;;;;;21.53;46.87;93325.97;5091947;28;20059;-81
2022/07/11 10:55:20;;;;;;;1.40;0.70;;;;;;;22.22;48.14;93358.25;5092149;28;20386;-80
2022/07/11 10:58:00;;;;;;;3.30;0.77;;;;;;;22.20;47.31;93358.53;5092280;28;20043;-82
2022/07/11 11:00:29;;;;;;;2.78;0.70;;;;;;;22.45;45.70;93334.97;5092023;28;20535;-80
2022/07/11 11:03:05;;;;;;;3.45;1.40;;;;;;;22.46;44.92;93355.63;5102546;28;20052;-80
2022/07/11 11:05:52;;;;;;;1.63;0.85;;;;;;;21.91;46.93;93361.97;5089433;28;20076;-81
2022/07/11 11:08:42;;;;;;;1.67;0.70;;;;;;;21.17;46.38;93365.41;5089197;28;20414;-80
2022/07/11 11:11:41;;;;;;;2.15;1.20;;;;;;;21.42;49.61;93369.69;5090207;28;20044;-81
2022/07/11 11:14:28;;;;;;;1.80;0.70;;;;;;;22.09;47.54;93362.31;5090625;28;20066;-80
2022/07/11 11:16:56;;;;;;;1.95;0.90;;;;;;;21.48;45.47;93365.19;5090612;28;20040;-80
2022/07/11 11:19:53;;;;;;;2.53;1.23;;;;;;;20.11;48.30;93368.78;5090035;28;20517;-79
2022/07/11 11:22:22;;;;;;;3.55;0.95;;;;;;;19.49;51.76;93367.00;5090287;28;20062;-78
2022/07/11 11:24:51;;;;;;;2.35;0.85;;;;;;;19.61;52.06;93364.16;5090592;28;20052;-79
2022/07/11 11:27:21;;;;;;;1.48;1.00;;;;;;;19.40;52.18;93365.19;5090653;28;20044;-80
2022/07/11 11:29:50;;;;;;;2.53;0.90;;;;;;;20.00;50.83;93364.63;5089332;28;20055;-80
2022/07/11 11:32:17;;;;;;;3.08;1.05;;;;;;;20.06;47.20;93362.78;5090511;28;20044;-79
2022/07/11 11:34:44;;;;;;;2.33;1.10;;;;;;;20.63;51.27;93365.16;5090187;28;20118;-81
2022/07/11 11:37:11;;;;;;;2.25;1.23;;;;;;;21.11;48.70;93364.69;5090342;28;20051;-81
2022/07/11 11:39:40;;;;;;;3.13;0.95;;;;;;;21.56;47.15;93364.59;5090362;28;20051;-79
2022/07/11 11:42:13;;;;;;;1.42;0.70;;;;;;;21.60;47.25;93354.38;5090234;28;20040;-79
2022/07/11 11:44:58;;;;;;;5.43;0.70;;;;;;;21.48;48.00;93363.34;5090246;28;20910;-81
2022/07/11 11:47:25;;;;;;;;;;;;;;;21.29;45.60;93362.47;5103771;28;20054;-79